Change the Weather History Date:

Friday, November 8, 2013

  Actual Average Record
Temperature  
Mean Temperature 43 °F -  
Max Temperature 62 °F - - ()
Min Temperature 24 °F - - ()
Degree Days  
Heating Degree Days 22    
Moisture  
Dew Point 21 °F    
Average Humidity 52    
Maximum Humidity 80    
Minimum Humidity 18    
Precipitation  
Precipitation 0.00 in - - ()
Sea Level Pressure  
Sea Level Pressure 30.14 in    
Wind  
Wind Speed 5 mph (SSW)    
Max Wind Speed 13 mph    
Max Gust Speed 18 mph    
Visibility 10 miles    
Events      
T = Trace of Precipitation, MM = Missing Value Source: NWS Daily Summary

Daily Weather History Graph

Daily Weather History Graph

Search for Another Location

Airport or City:

Trip Planner

Search our weather history database for the weather conditions in past years. The results will help you decide how hot, cold, wet, or windy it might be!

Date:

Astronomy

Nov. 08, 2013 Rise Set
Actual Time 6:20 AM PST 4:34 PM PST
Civil Twilight 5:52 AM PST 5:02 PM PST
Nautical Twilight 5:20 AM PST 5:34 PM PST
Astronomical Twilight 4:48 AM PST 6:06 PM PST
Moon 11:19 AM PST (11/8) 10:00 PM PST (11/8)
Length of Visible Light 11h 10m
Length of Day
10h 13m
Waxing Crescent, 34% of the Moon is Illuminated
Nov 8
Waxing Crescent
Nov 9
First Quarter
Nov 17
Full
Nov 25
Last Quarter
Dec 2
New

Hourly Weather History & Observations

Time (PST) Temp. Windchill Dew Point Humidity Pressure Visibility Wind Dir Wind Speed Gust Speed Precip Events Conditions
12:15 AM 28.4 °F - 21.2 °F 74% 30.17 in 10.0 mi Calm Calm - N/A   Clear
12:35 AM 28.4 °F 22.2 °F 23.0 °F 80% 30.18 in 10.0 mi SE 5.8 mph - N/A   Clear
12:55 AM 30.2 °F 26.7 °F 23.0 °F 75% 30.18 in 10.0 mi SE 3.5 mph - N/A   Clear
1:15 AM 30.2 °F 24.3 °F 23.0 °F 75% 30.19 in 10.0 mi South 5.8 mph - N/A   Clear
1:35 AM 28.4 °F 20.4 °F 21.2 °F 74% 30.18 in 10.0 mi South 8.1 mph - N/A   Clear
1:55 AM 28.4 °F 20.4 °F 21.2 °F 74% 30.18 in 10.0 mi SSE 8.1 mph - N/A   Clear
2:15 AM 30.2 °F 23.4 °F 21.2 °F 69% 30.17 in 10.0 mi South 6.9 mph - N/A   Clear
2:35 AM 26.6 °F - 19.4 °F 74% 30.18 in 10.0 mi Calm Calm - N/A   Clear
2:55 AM 32.0 °F 27.5 °F 23.0 °F 69% 30.17 in 10.0 mi West 4.6 mph - N/A   Clear
3:15 AM 28.4 °F - 21.2 °F 74% 30.18 in 10.0 mi Calm Calm - N/A   Clear
3:35 AM 28.4 °F 21.2 °F 21.2 °F 74% 30.17 in 10.0 mi South 6.9 mph - N/A   Clear
3:55 AM 26.6 °F 19.1 °F 21.2 °F 80% 30.17 in 10.0 mi SSW 6.9 mph - N/A   Clear
4:15 AM 26.6 °F 17.5 °F 21.2 °F 80% 30.17 in 10.0 mi SSW 9.2 mph - N/A   Clear
4:35 AM 28.4 °F 22.2 °F 21.2 °F 74% 30.17 in 10.0 mi South 5.8 mph - N/A   Clear
4:55 AM 26.6 °F 19.1 °F 21.2 °F 80% 30.17 in 10.0 mi South 6.9 mph - N/A   Clear
5:15 AM 28.4 °F 22.2 °F 21.2 °F 74% 30.17 in 10.0 mi South 5.8 mph - N/A   Clear
5:35 AM 26.6 °F - 19.4 °F 74% 30.17 in 10.0 mi Calm Calm - N/A   Clear
5:55 AM 24.8 °F - 19.4 °F 80% 30.17 in 10.0 mi Calm Calm - N/A   Clear
6:15 AM - - - N/A% 30.17 in 10.0 mi South 6.9 mph - N/A   Clear
6:35 AM 28.4 °F 21.2 °F 21.2 °F 74% 30.17 in 10.0 mi SSW 6.9 mph - N/A   Clear
6:55 AM 28.4 °F 22.2 °F 21.2 °F 74% 30.18 in 10.0 mi South 5.8 mph - N/A   Clear
7:15 AM - - - N/A% 30.18 in 10.0 mi South 9.2 mph - N/A   Clear
7:35 AM 35.6 °F 30.7 °F 24.8 °F 65% 30.19 in 10.0 mi SSW 5.8 mph - N/A   Clear
7:55 AM 39.2 °F 37.0 °F 24.8 °F 56% 30.19 in 10.0 mi SSW 3.5 mph - N/A   Clear
8:15 AM 42.8 °F 40.1 °F 24.8 °F 49% 30.19 in 10.0 mi SSW 4.6 mph - N/A   Clear
8:35 AM 46.4 °F 43.5 °F 23.0 °F 40% 30.18 in 10.0 mi SSW 5.8 mph - N/A   Clear
8:55 AM 48.2 °F - 23.0 °F 37% 30.18 in 10.0 mi SW 5.8 mph - N/A   Clear
9:15 AM 50.0 °F - 23.0 °F 35% 30.18 in 10.0 mi SW 4.6 mph - N/A   Clear
9:35 AM 51.8 °F - 21.2 °F 30% 30.18 in 10.0 mi South 3.5 mph - N/A   Clear
9:55 AM 53.6 °F - 19.4 °F 26% 30.17 in 10.0 mi SSW 3.5 mph - N/A   Clear
10:15 AM 53.6 °F - 17.6 °F 24% 30.17 in 10.0 mi SSW 3.5 mph - N/A   Clear
10:35 AM 53.6 °F - 19.4 °F 26% 30.16 in 10.0 mi Calm Calm - N/A   Clear
10:55 AM 57.2 °F - 19.4 °F 23% 30.16 in 10.0 mi WSW 8.1 mph - N/A   Clear
11:15 AM 57.2 °F - 19.4 °F 23% 30.15 in 10.0 mi WSW 9.2 mph - N/A   Clear
11:35 AM 59.0 °F - 19.4 °F 22% 30.15 in 10.0 mi WNW 5.8 mph - N/A   Clear
11:55 AM 59.0 °F - 19.4 °F 22% 30.14 in 10.0 mi WNW 9.2 mph 16.1 mph N/A   Clear
12:15 PM 59.0 °F - 19.4 °F 22% 30.13 in 10.0 mi West 10.4 mph - N/A   Clear
12:35 PM 59.0 °F - 19.4 °F 22% 30.12 in 10.0 mi West 8.1 mph - N/A   Clear
12:55 PM - - - N/A% 30.10 in 10.0 mi West 10.4 mph - N/A   Clear
1:15 PM 62.6 °F - 19.4 °F 19% 30.10 in 10.0 mi West 9.2 mph - N/A   Clear
1:35 PM 62.6 °F - 19.4 °F 19% 30.09 in 10.0 mi West 9.2 mph - N/A   Clear
1:55 PM 62.6 °F - 19.4 °F 19% 30.09 in 10.0 mi WSW 6.9 mph - N/A   Clear
2:15 PM 62.6 °F - 17.6 °F 18% 30.09 in 10.0 mi WSW 8.1 mph - N/A   Clear
2:35 PM 62.6 °F - 17.6 °F 18% 30.08 in 10.0 mi WSW 11.5 mph 16.1 mph N/A   Clear
2:55 PM 62.6 °F - 17.6 °F 18% 30.08 in 10.0 mi WSW 11.5 mph 16.1 mph N/A   Clear
3:15 PM 62.6 °F - 17.6 °F 18% 30.08 in 10.0 mi WSW 12.7 mph 18.4 mph N/A   Clear
3:35 PM 60.8 °F - 17.6 °F 19% 30.08 in 10.0 mi West 9.2 mph - N/A   Clear
3:55 PM - - - N/A% 30.07 in 10.0 mi West 6.9 mph - N/A   Clear
4:15 PM 57.2 °F - 17.6 °F 21% 30.07 in 10.0 mi WSW 5.8 mph - N/A   Clear
4:35 PM 53.6 °F - 17.6 °F 24% 30.07 in 10.0 mi Calm Calm - N/A   Clear
4:55 PM 50.0 °F - 17.6 °F 28% 30.07 in 10.0 mi SW 8.1 mph - N/A   Clear
5:15 PM 46.4 °F 44.3 °F 19.4 °F 34% 30.08 in 10.0 mi SSE 4.6 mph - N/A   Clear
5:35 PM 44.6 °F 40.7 °F 23.0 °F 43% 30.08 in 10.0 mi SSE 6.9 mph - N/A   Clear
5:55 PM 42.8 °F 40.1 °F 23.0 °F 46% 30.09 in 10.0 mi SW 4.6 mph - N/A   Clear
6:15 PM 41.0 °F - 23.0 °F 49% 30.10 in 10.0 mi Calm Calm - N/A   Clear
6:35 PM 37.4 °F 33.8 °F 21.2 °F 52% 30.10 in 10.0 mi North 4.6 mph - N/A   Clear
6:55 PM 37.4 °F 32.1 °F 23.0 °F 56% 30.10 in 10.0 mi ESE 6.9 mph - N/A   Clear
7:15 PM 37.4 °F 32.8 °F 23.0 °F 56% 30.10 in 10.0 mi SSE 5.8 mph - N/A   Clear
7:35 PM 35.6 °F 30.7 °F 23.0 °F 60% 30.11 in 10.0 mi SW 5.8 mph - N/A   Clear
7:55 PM 33.8 °F - 21.2 °F 60% 30.11 in 10.0 mi Calm Calm - N/A   Clear
8:15 PM 33.8 °F - 21.2 °F 60% 30.11 in 10.0 mi Calm Calm - N/A   Clear
8:35 PM 32.0 °F - 23.0 °F 69% 30.12 in 10.0 mi Calm Calm - N/A   Clear
8:55 PM 32.0 °F 25.6 °F 23.0 °F 69% 30.12 in 10.0 mi SSE 6.9 mph - N/A   Clear
9:15 PM 35.6 °F 31.7 °F 23.0 °F 60% 30.13 in 10.0 mi South 4.6 mph - N/A   Clear
9:35 PM 33.8 °F - 23.0 °F 65% 30.13 in 10.0 mi Calm Calm - N/A   Clear
9:55 PM 32.0 °F - 23.0 °F 69% 30.13 in 10.0 mi Calm Calm - N/A   Clear
10:15 PM 32.0 °F 25.6 °F 23.0 °F 69% 30.13 in 10.0 mi SW 6.9 mph - N/A   Clear
10:35 PM 32.0 °F 25.6 °F 23.0 °F 69% 30.13 in 10.0 mi South 6.9 mph - N/A   Clear
10:55 PM 32.0 °F 27.5 °F 23.0 °F 69% 30.13 in 10.0 mi South 4.6 mph - N/A   Clear
11:15 PM 32.0 °F - 23.0 °F 69% 30.13 in 10.0 mi Calm Calm - N/A   Clear
11:35 PM 32.0 °F 26.4 °F 23.0 °F 69% 30.14 in 10.0 mi SSW 5.8 mph - N/A   Clear
11:55 PM 32.0 °F 26.4 °F 23.0 °F 69% 30.13 in 10.0 mi SSW 5.8 mph - N/A   Clear